KRHV/RHV METAR and TAF weather

Enter ICAO airport designator
Station Type Date Time Source
KRHV METAR 2020/06/05 04:47 UTC NOAA

KRHV 050447Z 19005KT 10SM SKC 21/11 A2973 RMK LAST


Station Type Date Time Source
KRHV Decoded METAR 2020/06/05 04:47 UTC NOAA

San Jose / Reid / Hillv, CA, United States (KRHV) 37-20N 121-49W
Jun 05, 2020 - 12:47 AM EDT / 2020.06.05 0447 UTC
Wind: from the S (190 degrees) at 6 MPH (5 KT):0
Visibility: 10 mile(s):0
Sky conditions: clear
Temperature: 69 F (21 C)
Dew Point: 51 F (11 C)
Relative Humidity: 52%
Pressure (altimeter): 29.73 in. Hg (1006 hPa)
ob: KRHV 050447Z 19005KT 10SM SKC 21/11 A2973 RMK LAST
cycle: 5

Station Type Date Time Source
KRHV TAF UTC NOAA

Error!

Example: see airport list